createdAt,value
2022-12-25T00:00:36.006Z,3.90
2022-12-25T00:03:03.098Z,3.90
2022-12-25T00:05:30.085Z,3.90
2022-12-25T00:07:57.033Z,3.80
2022-12-25T00:10:24.486Z,3.80
2022-12-25T00:12:51.832Z,3.80
2022-12-25T00:15:18.707Z,3.70
2022-12-25T00:17:45.782Z,3.70
2022-12-25T00:20:12.694Z,3.70
2022-12-25T00:22:39.633Z,3.60
2022-12-25T00:25:07.052Z,3.50
2022-12-25T00:27:34.690Z,3.50
2022-12-25T00:30:01.778Z,3.50
2022-12-25T00:32:28.712Z,3.30
2022-12-25T00:34:55.651Z,3.30
2022-12-25T00:37:22.615Z,3.10
2022-12-25T00:39:49.926Z,3.00
2022-12-25T00:42:19.432Z,3.00
2022-12-25T00:44:47.318Z,3.00
2022-12-25T00:47:15.299Z,2.90
2022-12-25T00:49:42.420Z,3.00
2022-12-25T00:52:09.713Z,3.20
2022-12-25T00:54:37.202Z,3.20
2022-12-25T00:57:04.427Z,3.30
2022-12-25T00:59:32.712Z,3.30
2022-12-25T01:02:18.754Z,3.30
2022-12-25T01:04:45.799Z,3.30
2022-12-25T01:07:12.838Z,3.30
2022-12-25T01:09:58.235Z,3.40
2022-12-25T01:12:25.242Z,3.10
2022-12-25T01:14:52.084Z,3.10
2022-12-25T01:17:18.969Z,3.10
2022-12-25T01:19:45.855Z,3.00
2022-12-25T01:22:12.727Z,2.90
2022-12-25T01:24:39.897Z,2.90
2022-12-25T01:27:06.750Z,2.80
2022-12-25T01:29:33.644Z,2.80
2022-12-25T01:32:00.744Z,2.80
2022-12-25T01:34:27.677Z,2.70
2022-12-25T01:36:57.564Z,2.70
2022-12-25T01:39:24.444Z,2.70
2022-12-25T01:41:51.337Z,2.70
2022-12-25T01:44:36.599Z,2.70
2022-12-25T01:47:04.667Z,2.70
2022-12-25T01:49:32.837Z,2.70
2022-12-25T01:52:06.093Z,2.80
2022-12-25T01:54:41.187Z,2.80
2022-12-25T01:57:14.619Z,2.50
2022-12-25T01:59:41.898Z,2.30
2022-12-25T02:02:09.176Z,2.10
2022-12-25T02:04:43.013Z,2.20
2022-12-25T02:07:19.920Z,2.10
2022-12-25T02:09:46.922Z,2.10
2022-12-25T02:12:32.839Z,2.10
2022-12-25T02:15:05.945Z,2.10
2022-12-25T02:17:45.976Z,2.10
2022-12-25T02:20:27.948Z,2.20
2022-12-25T02:23:33.753Z,2.30
2022-12-25T02:26:22.606Z,2.40
2022-12-25T02:29:07.906Z,2.50
2022-12-25T02:31:59.593Z,2.60
2022-12-25T02:34:41.440Z,2.70
2022-12-25T02:37:27.145Z,2.70
2022-12-25T02:40:19.689Z,2.80
2022-12-25T02:43:16.840Z,2.90
2022-12-25T02:46:16.513Z,2.80
2022-12-25T02:49:23.413Z,2.80
2022-12-25T02:52:17.398Z,2.70
2022-12-25T02:55:07.733Z,2.70
2022-12-25T02:57:58.205Z,2.70
2022-12-25T03:00:44.658Z,2.60
2022-12-25T03:03:32.066Z,2.70
2022-12-25T03:06:21.630Z,2.80
2022-12-25T03:08:53.595Z,2.80
2022-12-25T03:11:32.571Z,2.70
2022-12-25T03:14:24.835Z,2.70
2022-12-25T03:16:56.439Z,2.80
2022-12-25T03:20:06.326Z,2.80
2022-12-25T03:22:52.242Z,2.70
2022-12-25T03:25:38.296Z,2.80
2022-12-25T03:28:06.200Z,2.70
2022-12-25T03:31:13.849Z,2.60
2022-12-25T03:34:06.563Z,2.60
2022-12-25T03:37:24.143Z,2.50
2022-12-25T03:40:26.499Z,2.30
2022-12-25T03:43:28.663Z,2.00
2022-12-25T03:46:17.792Z,1.80
2022-12-25T03:49:08.779Z,1.80
2022-12-25T03:51:56.732Z,1.70
2022-12-25T03:54:46.497Z,1.60
2022-12-25T03:57:33.029Z,1.60
2022-12-25T04:00:18.571Z,1.60
2022-12-25T04:03:04.028Z,1.70
2022-12-25T04:05:49.479Z,1.60
2022-12-25T04:08:34.938Z,1.70
2022-12-25T04:11:20.575Z,1.50
2022-12-25T04:14:05.899Z,1.50
2022-12-25T04:16:51.565Z,1.50
2022-12-25T04:19:37.202Z,1.50
2022-12-25T04:22:22.517Z,1.50
2022-12-25T04:25:07.860Z,1.40
2022-12-25T04:27:53.206Z,1.40
2022-12-25T04:30:38.954Z,1.40
2022-12-25T04:33:24.276Z,1.30
2022-12-25T04:36:11.237Z,1.30
2022-12-25T04:38:40.248Z,1.40
2022-12-25T04:41:09.493Z,1.30
2022-12-25T04:43:36.768Z,1.00
2022-12-25T04:46:05.327Z,0.80
2022-12-25T04:48:34.966Z,0.80
2022-12-25T04:51:16.687Z,0.90
2022-12-25T04:53:44.292Z,0.80
2022-12-25T04:56:11.290Z,0.90
2022-12-25T04:58:38.693Z,0.80
2022-12-25T05:01:05.669Z,0.70
2022-12-25T05:03:33.530Z,1.10
2022-12-25T05:06:01.659Z,0.70
2022-12-25T05:08:30.439Z,0.60
2022-12-25T05:10:58.524Z,0.60
2022-12-25T05:13:26.171Z,0.70
2022-12-25T05:15:53.796Z,0.70
2022-12-25T05:18:21.457Z,0.70
2022-12-25T05:20:53.585Z,0.60
2022-12-25T05:23:21.377Z,0.50
2022-12-25T05:25:48.122Z,0.50
2022-12-25T05:28:14.975Z,0.40
2022-12-25T05:30:41.775Z,0.40
2022-12-25T05:33:08.560Z,0.40
2022-12-25T05:35:37.347Z,0.50
2022-12-25T05:38:05.030Z,0.50
2022-12-25T05:40:33.944Z,0.60
2022-12-25T05:43:00.943Z,0.60
2022-12-25T05:45:27.790Z,0.60
2022-12-25T05:47:54.595Z,0.50
2022-12-25T05:50:21.383Z,0.50
2022-12-25T05:52:48.234Z,0.50
2022-12-25T05:55:15.164Z,0.40
2022-12-25T05:57:41.989Z,0.30
2022-12-25T06:00:09.674Z,0.20
2022-12-25T06:02:39.509Z,0.20
2022-12-25T06:05:06.944Z,0.20
2022-12-25T06:07:33.772Z,0.30
2022-12-25T06:10:01.240Z,0.30
2022-12-25T06:12:28.303Z,0.30
2022-12-25T06:14:55.107Z,0.30
2022-12-25T06:17:24.535Z,0.20
2022-12-25T06:19:51.306Z,0.20
2022-12-25T06:22:18.125Z,0.20
2022-12-25T06:24:45.107Z,0.30
2022-12-25T06:27:12.011Z,0.30
2022-12-25T06:29:38.867Z,0.40
2022-12-25T06:32:05.669Z,0.30
2022-12-25T06:34:32.506Z,0.30
2022-12-25T06:36:59.259Z,0.30
2022-12-25T06:39:26.188Z,0.30
2022-12-25T06:41:52.959Z,0.20
2022-12-25T06:44:19.704Z,0.30
2022-12-25T06:46:46.523Z,0.20
2022-12-25T06:49:13.323Z,0.20
2022-12-25T06:51:40.121Z,0.20
2022-12-25T06:54:06.944Z,0.20
2022-12-25T06:56:34.533Z,0.10
2022-12-25T06:59:07.283Z,0.10
2022-12-25T07:01:48.210Z,0.20
2022-12-25T07:04:40.394Z,0.30
2022-12-25T07:07:09.430Z,0.20
2022-12-25T07:09:38.707Z,0.20
2022-12-25T07:12:20.588Z,0.30
2022-12-25T07:14:50.717Z,0.30
2022-12-25T07:17:18.709Z,0.30
2022-12-25T07:19:49.115Z,0.30
2022-12-25T07:22:16.624Z,0.30
2022-12-25T07:24:43.572Z,0.20
2022-12-25T07:27:10.862Z,0.20
2022-12-25T07:29:37.807Z,0.30
2022-12-25T07:32:05.023Z,0.40
2022-12-25T07:34:31.932Z,0.40
2022-12-25T07:36:58.760Z,0.50
2022-12-25T07:39:25.584Z,0.50
2022-12-25T07:41:52.338Z,0.50
2022-12-25T07:44:19.242Z,0.60
2022-12-25T07:46:46.203Z,0.60
2022-12-25T07:49:13.157Z,0.70
2022-12-25T07:51:40.127Z,0.70
2022-12-25T07:54:06.957Z,0.70
2022-12-25T07:56:33.982Z,0.80
2022-12-25T07:59:00.823Z,0.80
2022-12-25T08:01:28.398Z,0.90
2022-12-25T08:03:57.953Z,1.10
2022-12-25T08:06:30.884Z,1.00
2022-12-25T08:09:02.760Z,1.10
2022-12-25T08:11:29.584Z,1.20
2022-12-25T08:13:56.494Z,1.20
2022-12-25T08:16:23.431Z,1.30
2022-12-25T08:18:50.427Z,1.20
2022-12-25T08:21:17.259Z,1.30
2022-12-25T08:23:46.601Z,1.30
2022-12-25T08:26:16.419Z,1.30
2022-12-25T08:28:43.570Z,1.30
2022-12-25T08:31:25.110Z,1.40
2022-12-25T08:33:54.119Z,1.40
2022-12-25T09:01:50.089Z,1.70
2022-12-25T09:04:17.076Z,1.60
2022-12-25T09:06:44.121Z,1.70
2022-12-25T09:09:11.058Z,1.70
2022-12-25T09:11:37.891Z,1.80
2022-12-25T09:14:04.850Z,1.80
2022-12-25T09:16:31.818Z,1.90
2022-12-25T09:18:58.856Z,1.90
2022-12-25T09:21:25.781Z,2.00
2022-12-25T09:23:52.697Z,2.10
2022-12-25T09:26:19.833Z,2.20
2022-12-25T09:28:51.906Z,2.20
2022-12-25T09:31:20.989Z,2.30
2022-12-25T09:33:49.225Z,2.40
2022-12-25T09:36:16.044Z,2.40
2022-12-25T09:38:43.249Z,2.40
2022-12-25T09:41:22.142Z,2.50
2022-12-25T09:44:13.369Z,2.60
2022-12-25T09:46:45.527Z,2.50
2022-12-25T09:49:27.265Z,2.60
2022-12-25T09:52:03.031Z,2.70
2022-12-25T09:54:37.697Z,2.80
2022-12-25T09:57:05.429Z,2.80
2022-12-25T09:59:32.274Z,2.90
2022-12-25T10:02:19.528Z,2.90
2022-12-25T10:05:05.417Z,3.10
2022-12-25T10:07:52.908Z,3.20
2022-12-25T10:10:39.726Z,3.20
2022-12-25T10:13:30.336Z,3.30
2022-12-25T10:16:12.048Z,3.30
2022-12-25T10:18:57.784Z,3.40
2022-12-25T10:21:25.440Z,3.50
2022-12-25T10:24:18.004Z,3.60
2022-12-25T10:26:45.181Z,3.60
2022-12-25T10:29:19.257Z,3.70
2022-12-25T10:31:48.617Z,3.90
2022-12-25T10:34:16.353Z,3.80
2022-12-25T10:36:45.733Z,3.80
2022-12-25T10:39:26.106Z,4.00
2022-12-25T10:42:14.636Z,4.20
2022-12-25T10:44:41.445Z,4.20
2022-12-25T10:47:08.557Z,4.40
2022-12-25T10:49:38.844Z,4.40
2022-12-25T10:52:23.719Z,4.50
2022-12-25T10:54:50.679Z,4.50
2022-12-25T10:57:21.602Z,4.60
2022-12-25T10:59:56.047Z,4.60
2022-12-25T11:02:39.289Z,4.60
2022-12-25T11:05:10.092Z,4.80
2022-12-25T11:07:51.125Z,4.90
2022-12-25T11:10:25.574Z,5.00
2022-12-25T11:12:53.776Z,5.10
2022-12-25T11:15:40.391Z,5.10
2022-12-25T11:18:21.394Z,5.30
2022-12-25T11:21:05.010Z,5.30
2022-12-25T11:23:33.041Z,5.50
2022-12-25T11:26:05.730Z,5.70
2022-12-25T11:28:35.644Z,5.70
2022-12-25T11:31:42.993Z,5.70
2022-12-25T11:34:20.631Z,5.70
2022-12-25T11:36:49.918Z,5.70
2022-12-25T11:39:25.497Z,5.80
2022-12-25T11:42:14.510Z,5.80
2022-12-25T11:44:49.577Z,5.80
2022-12-25T11:47:59.381Z,5.80
2022-12-25T11:50:40.928Z,5.70
2022-12-25T11:53:23.726Z,5.80
2022-12-25T11:55:57.188Z,5.70
2022-12-25T11:59:04.368Z,5.90
2022-12-25T12:01:45.307Z,6.00
2022-12-25T12:04:29.624Z,6.10
2022-12-25T12:07:18.727Z,6.20
2022-12-25T12:10:01.389Z,6.30
2022-12-25T12:12:53.638Z,6.50
2022-12-25T12:15:42.310Z,6.60
2022-12-25T12:18:19.621Z,6.70
2022-12-25T12:21:08.390Z,6.80
2022-12-25T12:23:48.796Z,6.80
2022-12-25T12:26:20.721Z,6.90
2022-12-25T12:28:49.469Z,6.80
2022-12-25T12:31:17.029Z,6.90
2022-12-25T12:33:56.359Z,6.90
2022-12-25T12:36:36.189Z,6.90
2022-12-25T12:39:06.430Z,6.80
2022-12-25T12:41:50.909Z,6.80
2022-12-25T12:44:23.286Z,6.80
2022-12-25T12:46:58.330Z,6.80
2022-12-25T12:49:33.036Z,6.80
2022-12-25T12:52:32.382Z,6.70
2022-12-25T12:55:15.050Z,6.80
2022-12-25T12:57:42.798Z,6.80
2022-12-25T13:00:16.764Z,6.90
2022-12-25T13:03:09.146Z,6.80
2022-12-25T13:05:57.864Z,6.90
2022-12-25T13:08:43.490Z,7.10
2022-12-25T13:11:29.245Z,7.00
2022-12-25T13:14:00.657Z,7.00
2022-12-25T13:16:36.935Z,6.80
2022-12-25T13:19:12.381Z,6.90
2022-12-25T13:21:39.424Z,6.90
2022-12-25T13:24:18.303Z,6.90
2022-12-25T13:26:45.102Z,6.80
2022-12-25T13:29:35.608Z,6.90
2022-12-25T13:32:05.400Z,6.90
2022-12-25T13:34:41.928Z,6.80
2022-12-25T13:37:14.205Z,6.80
2022-12-25T13:39:59.763Z,6.70
2022-12-25T13:42:32.113Z,6.70
2022-12-25T13:45:01.403Z,6.70
2022-12-25T13:47:35.067Z,6.70
2022-12-25T13:50:30.136Z,6.60
2022-12-25T13:53:11.113Z,6.60
2022-12-25T13:55:38.225Z,6.60
2022-12-25T13:58:07.493Z,6.60
2022-12-25T14:00:53.070Z,6.50
2022-12-25T14:03:35.286Z,6.60
2022-12-25T14:06:24.070Z,6.60
2022-12-25T14:08:52.460Z,6.50
2022-12-25T14:11:22.544Z,6.50
2022-12-25T14:13:52.573Z,6.50
2022-12-25T14:16:21.058Z,6.50
2022-12-25T14:18:59.077Z,6.40
2022-12-25T14:21:38.285Z,6.40
2022-12-25T14:24:16.269Z,6.30
2022-12-25T14:26:43.397Z,6.30
2022-12-25T14:29:17.601Z,6.30
2022-12-25T14:31:46.812Z,6.20
2022-12-25T14:34:20.481Z,6.20
2022-12-25T14:36:50.292Z,6.10
2022-12-25T14:39:34.784Z,6.10
2022-12-25T14:42:12.322Z,6.00
2022-12-25T14:44:40.548Z,6.00
2022-12-25T14:47:19.365Z,6.10
2022-12-25T14:49:47.250Z,6.00
2022-12-25T14:52:23.391Z,5.90
2022-12-25T14:54:58.150Z,5.90
2022-12-25T14:57:40.500Z,5.90
2022-12-25T15:00:26.958Z,5.80
2022-12-25T15:02:56.612Z,5.90
2022-12-25T15:05:24.841Z,5.80
2022-12-25T15:08:11.017Z,5.70
2022-12-25T15:13:25.788Z,5.70
2022-12-25T15:16:02.173Z,5.60
2022-12-25T15:18:34.129Z,5.60
2022-12-25T15:21:00.910Z,5.60
2022-12-25T15:23:27.815Z,5.60
2022-12-25T15:25:54.772Z,5.40
2022-12-25T15:28:21.564Z,5.40
2022-12-25T15:30:49.844Z,5.40
2022-12-25T15:33:18.673Z,5.40
2022-12-25T15:35:45.630Z,5.40
2022-12-25T15:38:13.207Z,5.40
2022-12-25T15:40:40.938Z,5.40
2022-12-25T15:43:20.861Z,5.40
2022-12-25T15:45:56.239Z,5.40
2022-12-25T15:48:23.090Z,5.40
2022-12-25T15:50:50.180Z,5.40
2022-12-25T15:53:16.914Z,5.30
2022-12-25T15:55:43.748Z,5.40
2022-12-25T15:58:12.967Z,5.40
2022-12-25T16:00:39.842Z,5.40
2022-12-25T16:03:06.804Z,5.60
2022-12-25T16:05:33.680Z,5.70
2022-12-25T16:08:00.475Z,5.90
2022-12-25T16:10:36.580Z,5.90
2022-12-25T16:13:05.407Z,6.00
2022-12-25T16:15:32.343Z,6.10
2022-12-25T16:17:59.241Z,6.20
2022-12-25T16:20:25.980Z,6.20
2022-12-25T16:22:52.885Z,6.30
2022-12-25T16:25:20.100Z,6.30
2022-12-25T16:27:47.198Z,6.40
2022-12-25T16:30:16.230Z,6.30
2022-12-25T16:32:44.296Z,6.40
2022-12-25T16:35:12.034Z,6.40
2022-12-25T16:37:41.979Z,6.50
2022-12-25T16:40:12.545Z,6.50
2022-12-25T16:42:39.516Z,6.60
2022-12-25T16:45:06.800Z,6.60
2022-12-25T16:47:34.485Z,6.60
2022-12-25T16:50:03.675Z,6.70
2022-12-25T16:52:34.556Z,6.60
2022-12-25T16:55:02.501Z,6.70
2022-12-25T16:57:31.553Z,6.70
2022-12-25T16:59:59.036Z,6.70
2022-12-25T17:02:26.159Z,6.70
2022-12-25T17:04:53.133Z,6.80
2022-12-25T17:07:19.975Z,6.70
2022-12-25T17:09:48.090Z,6.80
2022-12-25T17:12:15.572Z,6.90
2022-12-25T17:14:42.711Z,6.90
2022-12-25T17:17:09.462Z,6.80
2022-12-25T17:19:36.904Z,6.90
2022-12-25T17:22:03.875Z,6.90
2022-12-25T17:24:30.799Z,6.90
2022-12-25T17:26:57.564Z,7.00
2022-12-25T17:29:25.156Z,7.10
2022-12-25T17:31:52.482Z,7.10
2022-12-25T17:34:19.572Z,7.10
2022-12-25T17:36:46.730Z,7.10
2022-12-25T17:39:13.612Z,7.10
2022-12-25T17:41:40.412Z,7.10
2022-12-25T17:44:07.167Z,7.20
2022-12-25T17:46:34.016Z,7.10
2022-12-25T17:49:01.812Z,7.10
2022-12-25T17:51:30.805Z,7.20
2022-12-25T17:54:02.964Z,7.20
2022-12-25T17:56:30.384Z,7.20
2022-12-25T17:58:59.263Z,7.20
2022-12-25T18:01:28.645Z,7.20
2022-12-25T18:03:55.997Z,7.20
2022-12-25T18:06:24.416Z,7.20
2022-12-25T18:08:51.459Z,7.30
2022-12-25T18:11:20.883Z,7.30
2022-12-25T18:13:51.795Z,7.30
2022-12-25T18:16:21.992Z,7.30
2022-12-25T18:18:52.216Z,7.30
2022-12-25T18:21:20.951Z,7.20
2022-12-25T18:23:48.368Z,7.30
2022-12-25T18:26:15.467Z,7.30
2022-12-25T18:28:44.201Z,7.30
2022-12-25T18:31:15.124Z,7.30
2022-12-25T18:33:42.835Z,7.30
2022-12-25T18:36:12.526Z,7.30
2022-12-25T18:38:39.514Z,7.30
2022-12-25T18:41:08.195Z,7.30
2022-12-25T18:43:53.664Z,7.40
2022-12-25T18:46:25.066Z,7.30
2022-12-25T18:49:06.000Z,7.40
2022-12-25T18:51:36.785Z,7.40
2022-12-25T18:54:06.970Z,7.30
2022-12-25T18:56:36.310Z,7.40
2022-12-25T18:59:03.531Z,7.30
2022-12-25T19:01:32.919Z,7.40
2022-12-25T19:04:06.182Z,7.40
2022-12-25T19:06:33.636Z,7.30
2022-12-25T19:09:09.804Z,7.40
2022-12-25T19:11:45.961Z,7.40
2022-12-25T19:14:13.269Z,7.40
2022-12-25T19:16:40.583Z,7.40
2022-12-25T19:19:07.541Z,7.40
2022-12-25T19:21:35.468Z,7.40
2022-12-25T19:24:02.378Z,7.40
2022-12-25T19:26:29.267Z,7.40
2022-12-25T19:28:56.169Z,7.40
2022-12-25T19:31:32.445Z,7.40
2022-12-25T19:33:59.406Z,7.40
2022-12-25T19:36:26.407Z,7.40
2022-12-25T19:38:53.855Z,7.40
2022-12-25T19:41:20.951Z,7.40
2022-12-25T19:43:49.304Z,7.40
2022-12-25T19:46:25.773Z,7.40
2022-12-25T19:48:55.405Z,7.30
2022-12-25T19:51:25.157Z,7.30
2022-12-25T19:53:58.568Z,7.40
2022-12-25T19:56:27.141Z,7.40
2022-12-25T19:58:54.077Z,7.40
2022-12-25T20:01:23.213Z,7.40
2022-12-25T20:03:50.537Z,7.40
2022-12-25T20:06:24.773Z,7.40
2022-12-25T20:09:13.469Z,7.40
2022-12-25T20:11:41.038Z,7.40
2022-12-25T20:14:08.641Z,7.40
2022-12-25T20:16:39.800Z,7.40
2022-12-25T20:19:07.532Z,7.40
2022-12-25T20:21:34.427Z,7.40
2022-12-25T20:24:01.399Z,7.40
2022-12-25T20:26:30.616Z,7.50
2022-12-25T20:28:58.833Z,7.50
2022-12-25T20:31:29.723Z,7.50
2022-12-25T20:33:58.593Z,7.50
2022-12-25T20:36:28.521Z,7.60
2022-12-25T20:38:59.629Z,7.60
2022-12-25T20:41:28.411Z,7.60
2022-12-25T20:43:57.624Z,7.60
2022-12-25T20:46:25.519Z,7.60
2022-12-25T20:48:53.137Z,7.60
2022-12-25T20:51:25.255Z,7.70
2022-12-25T20:53:52.852Z,7.70
2022-12-25T20:56:23.174Z,7.70
2022-12-25T20:58:58.177Z,7.80
2022-12-25T21:01:26.615Z,7.70
2022-12-25T21:03:53.889Z,7.80
2022-12-25T21:06:21.567Z,7.80
2022-12-25T21:08:48.744Z,7.80
2022-12-25T21:11:16.850Z,7.70
2022-12-25T21:13:46.016Z,7.80
2022-12-25T21:16:19.962Z,7.80
2022-12-25T21:18:48.306Z,7.80
2022-12-25T21:21:16.058Z,7.80
2022-12-25T21:23:43.239Z,7.90
2022-12-25T21:26:11.580Z,7.90
2022-12-25T21:28:38.692Z,7.90
2022-12-25T21:31:06.793Z,7.90
2022-12-25T21:33:53.232Z,7.90
2022-12-25T21:36:29.916Z,8.00
2022-12-25T21:39:02.411Z,8.00
2022-12-25T21:41:31.132Z,8.00
2022-12-25T21:43:58.236Z,8.00
2022-12-25T21:46:25.407Z,8.00
2022-12-25T21:48:52.840Z,8.00
2022-12-25T21:51:43.913Z,8.00
2022-12-25T21:54:14.849Z,8.00
2022-12-25T21:56:45.203Z,8.00
2022-12-25T21:59:20.723Z,8.10
2022-12-25T22:01:48.784Z,8.10
2022-12-25T22:04:19.014Z,8.10
2022-12-25T22:07:05.197Z,8.10
2022-12-25T22:09:32.515Z,8.20
2022-12-25T22:12:18.374Z,8.20
2022-12-25T22:14:54.794Z,8.20
2022-12-25T22:17:54.571Z,8.20
2022-12-25T22:20:27.646Z,8.30
2022-12-25T22:22:54.707Z,8.30
2022-12-25T22:25:22.482Z,8.30
2022-12-25T22:27:50.559Z,8.30
2022-12-25T22:30:23.195Z,8.30
2022-12-25T22:32:50.476Z,8.30
2022-12-25T22:35:18.228Z,8.40
2022-12-25T22:37:45.373Z,8.30
2022-12-25T22:40:15.123Z,8.40
2022-12-25T22:42:42.471Z,8.40
2022-12-25T22:45:10.960Z,8.40
2022-12-25T22:47:38.087Z,8.40
2022-12-25T22:50:05.507Z,8.50
2022-12-25T22:52:32.484Z,8.50
2022-12-25T22:54:59.423Z,8.50
2022-12-25T22:57:26.583Z,8.50
2022-12-25T22:59:53.633Z,8.50
2022-12-25T23:02:21.078Z,8.60
2022-12-25T23:04:48.399Z,8.60
2022-12-25T23:07:15.698Z,8.60
2022-12-25T23:09:43.919Z,8.60
2022-12-25T23:12:29.893Z,8.60
2022-12-25T23:14:57.619Z,8.60
2022-12-25T23:17:43.942Z,8.60
2022-12-25T23:20:35.302Z,8.70
2022-12-25T23:27:08.669Z,8.70
2022-12-25T23:29:36.842Z,8.80
2022-12-25T23:32:08.820Z,8.70
2022-12-25T23:34:38.530Z,8.80
2022-12-25T23:37:06.225Z,8.70
2022-12-25T23:39:33.312Z,8.80
2022-12-25T23:42:00.513Z,8.70
2022-12-25T23:44:28.021Z,8.80
2022-12-25T23:46:54.930Z,8.80
2022-12-25T23:49:23.803Z,8.80
2022-12-25T23:51:51.142Z,8.80
2022-12-25T23:54:20.900Z,8.80
2022-12-25T23:56:48.183Z,8.80
2022-12-25T23:59:15.632Z,8.90
